Adel, Iowa
Current Conditions -  °F | °C
As of 3:55 AM on Friday 19 Dec 2014 (Local Time) from KPRO Reporting Station
Haze Haze  
Wind Chill: 23°   Ceiling: 4200
Heat Index: 28°   Visibility: 4mi
Dew Point: 28°   Wind: 5mph
Humidity: 99%   Direction: 160°SSE
Pressure: 30.25"   Gusts: NA
Location:  41.61°N, 94.02°W
Report Text: KPRO 190955Z AUTO 16004KT 4SM BR SCT004 SCT017 OVC042 M02/M02 A3025 RMK AO2 T10201021
Loading
Personal Weather Stations






























Interactive Weather Map New forecast layout! Learn more

10-Day Weather Forecast

Advertisements
Track Severe Weather on mobile